createdAt,value
2023-06-29T02:44:37.103Z,100.00
2023-06-29T02:47:04.029Z,100.00
2023-06-29T02:49:30.787Z,100.00
2023-06-29T02:51:57.611Z,100.00
2023-06-29T02:54:24.273Z,100.00
2023-06-29T02:56:50.913Z,100.00
2023-06-29T02:59:17.638Z,100.00
2023-06-29T03:01:44.361Z,100.00
2023-06-29T03:04:11.041Z,100.00
2023-06-29T03:06:37.783Z,100.00
2023-06-29T03:09:04.573Z,100.00
2023-06-29T03:11:31.327Z,100.00
2023-06-29T03:13:59.080Z,100.00
2023-06-29T03:16:26.551Z,100.00
2023-06-29T03:18:53.399Z,100.00
2023-06-29T03:21:21.017Z,100.00
2023-06-29T03:23:48.144Z,100.00
2023-06-29T03:26:15.191Z,100.00
2023-06-29T03:28:42.017Z,100.00
2023-06-29T03:31:08.796Z,100.00
2023-06-29T03:33:35.713Z,100.00
2023-06-29T03:36:02.506Z,100.00
2023-06-29T03:38:29.248Z,100.00
2023-06-29T03:40:55.934Z,100.00
2023-06-29T03:43:25.418Z,100.00
2023-06-29T03:45:52.108Z,100.00
2023-06-29T03:48:18.949Z,100.00
2023-06-29T03:50:48.270Z,100.00
2023-06-29T03:53:14.934Z,100.00
2023-06-29T03:55:42.085Z,100.00
2023-06-29T03:58:09.549Z,100.00
2023-06-29T04:00:36.225Z,100.00
2023-06-29T04:03:03.096Z,100.00
2023-06-29T04:05:29.903Z,100.00
2023-06-29T04:07:56.887Z,100.00
2023-06-29T04:10:23.590Z,100.00
2023-06-29T04:12:50.339Z,100.00
2023-06-29T04:15:17.115Z,100.00
2023-06-29T04:17:43.876Z,100.00
2023-06-29T04:20:11.852Z,100.00
2023-06-29T04:22:38.571Z,100.00
2023-06-29T04:25:06.867Z,100.00
2023-06-29T04:27:35.427Z,100.00
2023-06-29T04:30:05.739Z,100.00
2023-06-29T04:32:32.780Z,100.00
2023-06-29T04:35:00.938Z,100.00
2023-06-29T04:37:27.672Z,100.00
2023-06-29T04:39:54.381Z,100.00
2023-06-29T04:42:21.110Z,100.00
2023-06-29T04:44:47.893Z,100.00
2023-06-29T04:47:14.724Z,100.00
2023-06-29T04:49:43.039Z,100.00
2023-06-29T04:52:11.406Z,100.00
2023-06-29T04:54:38.474Z,100.00
2023-06-29T04:57:06.214Z,100.00
2023-06-29T04:59:32.942Z,100.00
2023-06-29T05:01:59.918Z,100.00
2023-06-29T05:04:26.862Z,100.00
2023-06-29T05:06:53.572Z,100.00
2023-06-29T05:09:20.716Z,100.00
2023-06-29T05:11:47.475Z,100.00
2023-06-29T05:14:14.382Z,100.00
2023-06-29T05:16:41.258Z,100.00
2023-06-29T05:19:08.047Z,100.00
2023-06-29T05:21:34.735Z,100.00
2023-06-29T05:24:01.463Z,100.00
2023-06-29T05:26:28.304Z,100.00
2023-06-29T05:29:05.059Z,100.00
2023-06-29T05:31:33.295Z,100.00
2023-06-29T05:34:00.152Z,100.00
2023-06-29T05:36:27.873Z,100.00
2023-06-29T05:38:54.617Z,100.00
2023-06-29T05:41:21.442Z,100.00
2023-06-29T05:43:48.307Z,100.00
2023-06-29T05:46:15.185Z,100.00
2023-06-29T05:48:41.938Z,100.00
2023-06-29T05:51:08.826Z,100.00
2023-06-29T05:53:35.620Z,100.00
2023-06-29T05:56:02.310Z,100.00
2023-06-29T05:58:29.061Z,100.00
2023-06-29T06:00:55.858Z,100.00
2023-06-29T06:03:23.760Z,100.00
2023-06-29T06:05:50.934Z,100.00
2023-06-29T06:08:17.765Z,100.00
2023-06-29T06:10:44.809Z,100.00
2023-06-29T06:13:11.827Z,100.00
2023-06-29T06:15:38.682Z,100.00
2023-06-29T06:18:05.477Z,100.00
2023-06-29T06:20:32.263Z,100.00
2023-06-29T06:22:59.175Z,100.00
2023-06-29T06:25:26.081Z,100.00
2023-06-29T06:27:52.850Z,100.00
2023-06-29T06:30:20.942Z,100.00
2023-06-29T06:32:47.722Z,100.00
2023-06-29T06:35:14.536Z,100.00
2023-06-29T06:37:41.920Z,100.00
2023-06-29T06:40:10.010Z,100.00
2023-06-29T06:42:37.610Z,100.00
2023-06-29T06:45:05.913Z,100.00
2023-06-29T06:47:37.042Z,100.00
2023-06-29T06:50:05.272Z,100.00
2023-06-29T06:52:32.102Z,100.00
2023-06-29T06:54:58.953Z,100.00
2023-06-29T06:57:25.885Z,100.00
2023-06-29T06:59:52.692Z,100.00
2023-06-29T07:02:19.651Z,100.00
2023-06-29T07:04:46.531Z,100.00
2023-06-29T07:07:13.440Z,100.00
2023-06-29T07:09:40.282Z,100.00
2023-06-29T07:12:07.407Z,100.00
2023-06-29T07:14:34.371Z,100.00
2023-06-29T07:17:01.258Z,100.00
2023-06-29T07:24:27.541Z,100.00
2023-06-29T07:26:54.353Z,100.00
2023-06-29T07:29:21.426Z,100.00
2023-06-29T07:31:48.248Z,100.00
2023-06-29T07:34:15.513Z,100.00
2023-06-29T07:36:42.272Z,100.00
2023-06-29T07:39:08.963Z,100.00
2023-06-29T07:41:35.680Z,100.00
2023-06-29T07:44:02.657Z,100.00
2023-06-29T07:46:29.567Z,100.00
2023-06-29T07:48:56.550Z,100.00
2023-06-29T07:51:24.085Z,100.00
2023-06-29T07:53:51.699Z,100.00
2023-06-29T07:56:19.624Z,100.00
2023-06-29T07:58:46.741Z,100.00
2023-06-29T08:01:13.496Z,100.00
2023-06-29T08:03:55.787Z,100.00
2023-06-29T08:08:57.765Z,100.00
2023-06-29T08:11:24.722Z,100.00
2023-06-29T08:13:51.524Z,100.00
2023-06-29T08:16:18.327Z,100.00
2023-06-29T08:18:45.199Z,100.00
2023-06-29T08:21:12.112Z,100.00
2023-06-29T08:23:39.015Z,100.00
2023-06-29T08:26:05.995Z,100.00
2023-06-29T08:28:32.794Z,100.00
2023-06-29T08:30:59.543Z,100.00
2023-06-29T08:33:26.426Z,100.00
2023-06-29T08:35:53.332Z,100.00
2023-06-29T08:38:20.135Z,92.34
2023-06-29T08:40:48.773Z,99.83
2023-06-29T08:43:19.809Z,99.07
2023-06-29T08:45:47.221Z,100.00
2023-06-29T08:48:18.779Z,100.00
2023-06-29T08:51:01.040Z,93.65
2023-06-29T08:53:29.002Z,99.64
2023-06-29T08:55:57.686Z,100.00
2023-06-29T08:58:25.056Z,98.37
2023-06-29T09:00:54.325Z,88.29
2023-06-29T09:03:24.402Z,87.76
2023-06-29T09:05:51.852Z,90.40
2023-06-29T09:08:19.807Z,98.12
2023-06-29T09:10:47.925Z,100.00
2023-06-29T09:13:14.902Z,100.00
2023-06-29T09:15:42.609Z,100.00
2023-06-29T09:18:09.526Z,96.54
2023-06-29T09:20:36.764Z,89.59
2023-06-29T09:23:06.775Z,94.35
2023-06-29T09:25:37.438Z,100.00
2023-06-29T09:28:09.126Z,86.68
2023-06-29T09:30:38.889Z,79.32
2023-06-29T09:33:11.054Z,79.72
2023-06-29T09:35:40.818Z,85.00
2023-06-29T09:38:07.855Z,81.83
2023-06-29T09:40:57.664Z,89.60
2023-06-29T09:43:29.691Z,75.04
2023-06-29T09:46:08.867Z,75.79
2023-06-29T09:51:25.082Z,77.46
2023-06-29T09:53:51.947Z,85.06
2023-06-29T09:56:19.302Z,74.85
2023-06-29T09:58:47.649Z,66.54
2023-06-29T10:01:17.305Z,71.01
2023-06-29T10:03:45.158Z,62.20
2023-06-29T10:06:26.700Z,61.36
2023-06-29T10:08:59.407Z,62.86
2023-06-29T10:11:31.413Z,64.06
2023-06-29T10:14:01.850Z,63.52
2023-06-29T10:16:32.859Z,73.80
2023-06-29T10:19:10.680Z,85.05
2023-06-29T10:21:37.523Z,66.53
2023-06-29T10:24:05.852Z,72.70
2023-06-29T10:26:33.330Z,80.54
2023-06-29T10:29:00.148Z,83.38
2023-06-29T10:31:35.644Z,93.46
2023-06-29T10:34:07.075Z,69.74
2023-06-29T10:36:53.611Z,76.96
2023-06-29T10:39:38.797Z,65.63
2023-06-29T10:42:23.571Z,70.17
2023-06-29T10:44:51.061Z,71.69
2023-06-29T10:47:30.307Z,66.76
2023-06-29T10:50:12.172Z,57.71
2023-06-29T10:52:39.487Z,55.02
2023-06-29T10:55:19.598Z,58.56
2023-06-29T10:57:59.445Z,60.68
2023-06-29T11:00:27.555Z,59.19
2023-06-29T11:02:55.917Z,62.30
2023-06-29T11:05:23.737Z,65.38
2023-06-29T11:07:54.269Z,68.85
2023-06-29T11:10:22.389Z,69.29
2023-06-29T11:12:55.737Z,64.07
2023-06-29T11:15:23.781Z,64.62
2023-06-29T11:17:52.288Z,56.37
2023-06-29T11:20:23.450Z,60.67
2023-06-29T11:22:52.815Z,63.30
2023-06-29T11:25:19.830Z,68.66
2023-06-29T11:27:47.073Z,71.05
2023-06-29T11:30:14.045Z,69.62
2023-06-29T11:32:42.459Z,63.73
2023-06-29T11:35:11.517Z,65.75
2023-06-29T11:37:41.579Z,57.52
2023-06-29T11:40:22.314Z,58.38
2023-06-29T11:42:50.894Z,56.73
2023-06-29T11:45:18.772Z,56.96
2023-06-29T11:47:48.009Z,55.49
2023-06-29T11:50:16.572Z,56.92
2023-06-29T11:52:45.909Z,56.13
2023-06-29T11:55:14.571Z,52.91
2023-06-29T11:57:43.597Z,54.81
2023-06-29T12:00:13.552Z,51.58
2023-06-29T12:02:44.764Z,51.19
2023-06-29T12:05:12.051Z,53.44
2023-06-29T12:07:41.325Z,55.60
2023-06-29T12:10:10.302Z,50.35
2023-06-29T12:12:47.895Z,49.18
2023-06-29T12:15:19.476Z,51.11
2023-06-29T12:20:22.482Z,52.88
2023-06-29T12:22:50.923Z,50.47
2023-06-29T12:25:19.926Z,50.88
2023-06-29T12:27:51.144Z,48.59
2023-06-29T12:30:22.627Z,48.53
2023-06-29T12:32:51.213Z,46.54
2023-06-29T12:35:19.393Z,47.15
2023-06-29T12:37:46.698Z,45.82
2023-06-29T12:40:16.138Z,49.51
2023-06-29T12:42:42.983Z,48.54
2023-06-29T12:45:10.161Z,48.71
2023-06-29T12:47:37.606Z,47.27
2023-06-29T12:50:05.070Z,45.37
2023-06-29T12:52:32.097Z,47.85
2023-06-29T12:54:59.115Z,44.50
2023-06-29T12:57:33.697Z,43.94
2023-06-29T13:00:01.960Z,42.48
2023-06-29T13:02:28.822Z,43.99
2023-06-29T13:04:55.882Z,44.99
2023-06-29T13:07:24.638Z,45.52
2023-06-29T13:09:54.278Z,47.16
2023-06-29T13:12:21.254Z,50.70
2023-06-29T13:14:50.731Z,49.47
2023-06-29T13:17:17.921Z,50.19
2023-06-29T13:19:48.148Z,47.59
2023-06-29T13:22:15.697Z,46.86
2023-06-29T13:24:42.482Z,48.02
2023-06-29T13:27:09.393Z,46.35
2023-06-29T13:29:36.963Z,44.11
2023-06-29T13:32:04.433Z,41.62
2023-06-29T13:34:34.785Z,40.25
2023-06-29T13:37:02.146Z,39.51
2023-06-29T13:39:29.910Z,40.55
2023-06-29T13:41:56.951Z,44.26
2023-06-29T13:44:23.648Z,43.03
2023-06-29T13:46:50.503Z,43.14
2023-06-29T13:49:17.400Z,41.78
2023-06-29T13:51:45.311Z,43.71
2023-06-29T13:54:13.054Z,43.64
2023-06-29T13:56:39.773Z,45.62
2023-06-29T13:59:08.383Z,46.92
2023-06-29T14:01:36.817Z,49.64
2023-06-29T14:04:05.778Z,50.77
2023-06-29T14:06:35.760Z,49.29
2023-06-29T14:09:03.494Z,50.31
2023-06-29T14:11:30.337Z,52.06
2023-06-29T14:13:58.430Z,55.35
2023-06-29T14:16:30.594Z,54.38
2023-06-29T14:18:58.954Z,55.20
2023-06-29T14:21:25.975Z,55.06
2023-06-29T14:23:52.847Z,54.13
2023-06-29T14:26:19.767Z,52.88
2023-06-29T14:28:46.537Z,51.95
2023-06-29T14:31:13.478Z,51.49
2023-06-29T14:33:40.415Z,52.76
2023-06-29T14:36:07.228Z,51.48
2023-06-29T14:38:34.440Z,52.04
2023-06-29T14:41:03.367Z,52.63
2023-06-29T14:43:30.735Z,52.18
2023-06-29T14:45:58.603Z,51.51
2023-06-29T14:48:25.954Z,52.07
2023-06-29T14:50:53.913Z,53.83
2023-06-29T14:53:21.789Z,53.36
2023-06-29T14:55:49.817Z,53.26
2023-06-29T14:58:17.651Z,55.24
2023-06-29T15:00:44.453Z,53.85
2023-06-29T15:03:11.654Z,52.91
2023-06-29T15:05:38.449Z,51.93
2023-06-29T15:08:05.217Z,51.70
2023-06-29T15:10:32.168Z,53.05
2023-06-29T15:12:59.104Z,53.12
2023-06-29T15:15:25.876Z,54.09
2023-06-29T15:17:52.639Z,57.36
2023-06-29T15:20:19.500Z,58.30
2023-06-29T15:22:46.647Z,61.77
2023-06-29T15:25:13.738Z,63.95
2023-06-29T15:27:40.688Z,62.76
2023-06-29T15:30:07.988Z,61.89
2023-06-29T15:32:35.000Z,60.23
2023-06-29T15:35:02.448Z,61.09
2023-06-29T15:37:29.137Z,58.22
2023-06-29T15:39:56.026Z,57.42
2023-06-29T15:42:22.771Z,59.74
2023-06-29T15:44:49.602Z,57.50
2023-06-29T15:47:16.457Z,57.90
2023-06-29T15:49:43.553Z,58.60
2023-06-29T15:52:10.398Z,61.67
2023-06-29T15:54:37.256Z,60.37
2023-06-29T15:57:04.168Z,60.71
2023-06-29T15:59:30.903Z,62.10
2023-06-29T16:01:57.971Z,60.86
2023-06-29T16:04:24.743Z,60.89
2023-06-29T16:06:51.534Z,61.15
2023-06-29T16:09:18.259Z,62.09
2023-06-29T16:11:44.940Z,63.21
2023-06-29T16:14:11.694Z,64.54
2023-06-29T16:16:38.421Z,63.34
2023-06-29T16:19:05.149Z,61.26
2023-06-29T16:21:31.954Z,60.31
2023-06-29T16:23:58.732Z,61.14
2023-06-29T16:26:25.460Z,59.73
2023-06-29T16:28:52.453Z,61.49
2023-06-29T16:31:19.314Z,63.61
2023-06-29T16:33:46.201Z,65.55
2023-06-29T16:36:12.938Z,63.75
2023-06-29T16:38:39.706Z,66.64
2023-06-29T16:41:06.552Z,65.24
2023-06-29T16:43:33.527Z,67.52
2023-06-29T16:46:00.310Z,67.87
2023-06-29T16:48:27.052Z,71.61
2023-06-29T16:50:53.762Z,73.31
2023-06-29T16:53:20.469Z,71.38
2023-06-29T16:55:47.659Z,75.69
2023-06-29T16:58:14.922Z,76.33
2023-06-29T17:00:42.729Z,76.62
2023-06-29T17:03:09.655Z,79.18
2023-06-29T17:05:36.499Z,77.49
2023-06-29T17:08:03.270Z,79.95
2023-06-29T17:10:30.067Z,81.73
2023-06-29T17:12:56.794Z,85.62
2023-06-29T17:15:25.211Z,85.01
2023-06-29T17:17:52.646Z,86.29
2023-06-29T17:20:20.413Z,87.97
2023-06-29T17:22:47.423Z,87.36
2023-06-29T17:25:14.302Z,88.15
2023-06-29T17:27:40.998Z,90.61
2023-06-29T17:30:09.342Z,94.84
2023-06-29T17:32:36.331Z,96.37
2023-06-29T17:35:03.211Z,99.25
2023-06-29T17:37:29.991Z,100.00
2023-06-29T17:39:56.728Z,100.00
2023-06-29T17:42:23.972Z,100.00
2023-06-29T17:44:50.773Z,100.00
2023-06-29T17:47:17.482Z,100.00
2023-06-29T17:49:44.529Z,100.00
2023-06-29T17:52:11.934Z,100.00
2023-06-29T17:54:39.615Z,100.00
2023-06-29T17:57:07.622Z,100.00
2023-06-29T17:59:37.528Z,100.00
2023-06-29T18:02:04.712Z,100.00
2023-06-29T18:04:32.570Z,100.00
2023-06-29T18:07:00.729Z,100.00
2023-06-29T18:09:27.767Z,100.00
2023-06-29T18:11:57.392Z,100.00
2023-06-29T18:14:24.215Z,100.00
2023-06-29T18:16:50.970Z,100.00
2023-06-29T18:19:18.218Z,100.00
2023-06-29T18:21:46.041Z,100.00
2023-06-29T18:24:12.984Z,100.00
2023-06-29T18:26:39.664Z,100.00
2023-06-29T18:29:07.205Z,100.00
2023-06-29T18:31:34.262Z,100.00
2023-06-29T18:34:01.205Z,100.00
2023-06-29T18:36:28.135Z,100.00
2023-06-29T18:38:58.065Z,100.00
2023-06-29T18:41:33.164Z,100.00
2023-06-29T18:44:02.051Z,100.00
2023-06-29T18:46:30.582Z,100.00
2023-06-29T18:48:58.452Z,100.00
2023-06-29T18:51:26.330Z,100.00
2023-06-29T18:53:53.972Z,100.00
2023-06-29T18:56:21.434Z,100.00
2023-06-29T18:58:48.680Z,100.00
2023-06-29T19:01:15.972Z,100.00
2023-06-29T19:03:43.476Z,100.00
2023-06-29T19:06:10.620Z,100.00
2023-06-29T19:08:38.030Z,100.00
2023-06-29T19:11:04.907Z,100.00
2023-06-29T19:13:31.707Z,100.00
2023-06-29T19:16:00.675Z,100.00
2023-06-29T19:18:28.545Z,100.00
2023-06-29T19:20:55.333Z,100.00
2023-06-29T19:23:22.144Z,100.00
2023-06-29T19:25:49.016Z,100.00
2023-06-29T19:28:16.855Z,100.00
2023-06-29T19:30:44.502Z,100.00
2023-06-29T19:33:11.562Z,100.00
2023-06-29T19:35:39.107Z,100.00
2023-06-29T19:38:06.185Z,100.00
2023-06-29T19:40:33.067Z,100.00
2023-06-29T19:43:00.050Z,100.00
2023-06-29T19:45:26.814Z,100.00
2023-06-29T19:47:53.707Z,100.00
2023-06-29T19:50:20.620Z,100.00
2023-06-29T19:52:47.387Z,100.00
2023-06-29T19:55:14.680Z,100.00
2023-06-29T19:57:41.472Z,100.00
2023-06-29T20:00:09.750Z,100.00
2023-06-29T20:02:36.918Z,100.00
2023-06-29T20:05:03.808Z,100.00
2023-06-29T20:07:30.660Z,100.00
2023-06-29T20:09:57.491Z,100.00
2023-06-29T20:12:24.240Z,100.00
2023-06-29T20:14:50.981Z,100.00
2023-06-29T20:17:17.842Z,100.00
2023-06-29T20:19:44.849Z,100.00
2023-06-29T20:22:11.949Z,100.00
2023-06-29T20:24:39.361Z,100.00
2023-06-29T20:27:07.458Z,100.00
2023-06-29T20:29:34.352Z,100.00
2023-06-29T20:32:01.456Z,100.00
2023-06-29T20:34:28.296Z,100.00
2023-06-29T20:36:55.022Z,100.00
2023-06-29T20:39:23.633Z,100.00
2023-06-29T20:41:51.078Z,100.00
2023-06-29T20:44:19.685Z,100.00
2023-06-29T20:46:49.468Z,100.00
2023-06-29T20:49:20.036Z,100.00
2023-06-29T20:51:46.990Z,100.00
2023-06-29T20:54:13.826Z,100.00
2023-06-29T20:56:41.046Z,100.00
2023-06-29T20:59:07.859Z,100.00
2023-06-29T21:01:34.725Z,100.00
2023-06-29T21:04:01.638Z,100.00
2023-06-29T21:06:29.053Z,100.00
2023-06-29T21:08:55.795Z,100.00
2023-06-29T21:11:22.857Z,100.00
2023-06-29T21:13:49.692Z,100.00
2023-06-29T21:16:16.778Z,100.00
2023-06-29T21:18:43.997Z,100.00
2023-06-29T21:21:11.151Z,100.00
2023-06-29T21:23:38.061Z,100.00
2023-06-29T21:26:05.164Z,100.00
2023-06-29T21:28:33.332Z,100.00
2023-06-29T21:31:02.316Z,100.00
2023-06-29T21:33:29.321Z,100.00
2023-06-29T21:35:57.069Z,100.00
2023-06-29T21:38:28.214Z,100.00
2023-06-29T21:40:58.545Z,100.00
2023-06-29T21:43:25.357Z,100.00
2023-06-29T21:45:52.107Z,100.00
2023-06-29T21:48:19.017Z,100.00
2023-06-29T21:50:47.323Z,100.00
2023-06-29T21:53:14.985Z,100.00
2023-06-29T21:55:46.541Z,100.00
2023-06-29T21:58:13.493Z,100.00
2023-06-29T22:00:40.225Z,100.00
2023-06-29T22:03:07.078Z,100.00
2023-06-29T22:05:33.879Z,100.00
2023-06-29T22:08:00.729Z,100.00
2023-06-29T22:10:27.540Z,100.00
2023-06-29T22:12:54.248Z,100.00
2023-06-29T22:15:21.068Z,100.00
2023-06-29T22:17:50.270Z,100.00
2023-06-29T22:20:19.361Z,100.00
2023-06-29T22:22:46.435Z,100.00
2023-06-29T22:25:13.194Z,100.00
2023-06-29T22:27:40.059Z,100.00
2023-06-29T22:30:07.497Z,100.00
2023-06-29T22:32:34.378Z,100.00
2023-06-29T22:35:01.572Z,100.00
2023-06-29T22:37:28.523Z,100.00
2023-06-29T22:39:56.433Z,100.00
2023-06-29T22:42:23.300Z,100.00
2023-06-29T22:44:50.237Z,100.00
2023-06-29T22:47:17.068Z,100.00
2023-06-29T22:49:44.232Z,100.00
2023-06-29T22:52:11.106Z,100.00
2023-06-29T22:54:37.852Z,100.00
2023-06-29T22:57:04.949Z,100.00
2023-06-29T22:59:31.709Z,100.00
2023-06-29T23:01:58.433Z,100.00
2023-06-29T23:04:25.211Z,100.00
2023-06-29T23:06:54.905Z,100.00
2023-06-29T23:09:22.173Z,100.00
2023-06-29T23:11:49.863Z,100.00
2023-06-29T23:14:17.084Z,100.00
2023-06-29T23:16:44.801Z,100.00
2023-06-29T23:19:11.783Z,100.00
2023-06-29T23:21:38.552Z,100.00
2023-06-29T23:24:06.787Z,100.00
2023-06-29T23:26:33.602Z,100.00
2023-06-29T23:29:00.936Z,100.00
2023-06-29T23:31:29.185Z,100.00
2023-06-29T23:33:56.243Z,100.00
2023-06-29T23:36:23.607Z,100.00
2023-06-29T23:38:50.612Z,100.00
2023-06-29T23:41:23.319Z,100.00
2023-06-29T23:43:50.482Z,100.00
2023-06-29T23:46:17.205Z,100.00
2023-06-29T23:48:43.960Z,100.00
2023-06-29T23:51:10.756Z,100.00
2023-06-29T23:53:38.211Z,100.00
2023-06-29T23:56:05.503Z,100.00
2023-06-29T23:58:33.673Z,100.00
